Siam, Ohio
Current Conditions -  °F | °C
As of 10:52 PM on Saturday 25 Oct 2014 (Local Time) from KMFD Reporting Station
Clear Clear  
Wind Chill: 55°   Ceiling: Unl
Heat Index: 55°   Visibility: 10mi
Dew Point: 34°   Wind: 8mph
Humidity: 45%   Direction: 270°W
Pressure: 29.86"   Gusts: NA
Location:  41.0654°N, 82.876°W
Report Text: KMFD 260252Z 27007KT 10SM CLR 13/01 A2986 RMK AO2 SLP108 T01280011 51010
Loading
Personal Weather Stations






























Interactive Weather Map
Tropical Storm Tracking
New forecast layout! Learn more

10-Day Weather Forecast

Advertisements
Track Severe Weather on mobile